Terminal Aerodrome Forecast
Issued by NWS

Home | Current Version | Previous Version | Text Only | Print | Product List | Glossary On
Versions: 1 2 3 4 5 6 7 8 9 10 11 12 13 14 15
495
FTUS42 KTAE 011720
TAFABY
TAF
KABY 011720Z 0118/0218 20009KT P6SM SCT035
     FM011900 20010KT P6SM VCTS BKN040CB
     FM020000 17004KT P6SM BKN250
     FM021600 19005KT P6SM SCT040=

USA.gov is the U.S. government's official web portal to all federal, state and local government web resources and services.